sensor_id;sensor_type;location;lat;lon;timestamp;P1;durP1;ratioP1;P2;durP2;ratioP2
23678;SDS011;12016;51.668;6.874;2023-02-02T00:00:24;5.50;;;2.90;;
23678;SDS011;12016;51.668;6.874;2023-02-02T00:06:26;8.93;;;3.15;;
23678;SDS011;12016;51.668;6.874;2023-02-02T00:12:52;10.70;;;3.85;;
23678;SDS011;12016;51.668;6.874;2023-02-02T00:18:55;10.18;;;4.45;;
23678;SDS011;12016;51.668;6.874;2023-02-02T00:25:01;10.02;;;3.88;;
23678;SDS011;12016;51.668;6.874;2023-02-02T00:31:03;14.05;;;5.10;;
23678;SDS011;12016;51.668;6.874;2023-02-02T00:37:05;11.93;;;4.93;;
23678;SDS011;12016;51.668;6.874;2023-02-02T00:43:07;10.65;;;4.85;;
23678;SDS011;12016;51.668;6.874;2023-02-02T00:49:09;9.70;;;4.82;;
23678;SDS011;12016;51.668;6.874;2023-02-02T00:55:11;10.30;;;4.30;;
23678;SDS011;12016;51.668;6.874;2023-02-02T01:01:14;9.88;;;4.13;;
23678;SDS011;12016;51.668;6.874;2023-02-02T01:07:18;12.80;;;4.35;;
23678;SDS011;12016;51.668;6.874;2023-02-02T01:13:20;10.20;;;4.30;;
23678;SDS011;12016;51.668;6.874;2023-02-02T01:19:22;10.55;;;4.13;;
23678;SDS011;12016;51.668;6.874;2023-02-02T01:25:26;11.05;;;4.47;;
23678;SDS011;12016;51.668;6.874;2023-02-02T01:31:28;12.95;;;5.00;;
23678;SDS011;12016;51.668;6.874;2023-02-02T01:37:30;10.68;;;4.97;;
23678;SDS011;12016;51.668;6.874;2023-02-02T01:49:46;16.48;;;6.25;;
23678;SDS011;12016;51.668;6.874;2023-02-02T01:55:48;11.38;;;5.78;;
23678;SDS011;12016;51.668;6.874;2023-02-02T02:01:51;15.82;;;6.60;;
23678;SDS011;12016;51.668;6.874;2023-02-02T02:07:59;19.75;;;7.43;;
23678;SDS011;12016;51.668;6.874;2023-02-02T02:20:42;16.00;;;7.43;;
23678;SDS011;12016;51.668;6.874;2023-02-02T02:28:00;22.65;;;7.30;;
23678;SDS011;12016;51.668;6.874;2023-02-02T02:33:55;18.92;;;7.03;;
23678;SDS011;12016;51.668;6.874;2023-02-02T02:46:38;15.95;;;5.78;;
23678;SDS011;12016;51.668;6.874;2023-02-02T02:52:40;14.40;;;5.20;;
23678;SDS011;12016;51.668;6.874;2023-02-02T02:58:52;13.75;;;4.60;;
23678;SDS011;12016;51.668;6.874;2023-02-02T03:11:42;11.32;;;5.10;;
23678;SDS011;12016;51.668;6.874;2023-02-02T03:17:47;11.60;;;4.95;;
23678;SDS011;12016;51.668;6.874;2023-02-02T03:23:52;13.38;;;4.78;;
23678;SDS011;12016;51.668;6.874;2023-02-02T03:29:54;14.73;;;4.90;;
23678;SDS011;12016;51.668;6.874;2023-02-02T03:35:56;10.98;;;4.38;;
23678;SDS011;12016;51.668;6.874;2023-02-02T03:41:57;18.73;;;5.25;;
23678;SDS011;12016;51.668;6.874;2023-02-02T03:48:00;14.75;;;4.75;;
23678;SDS011;12016;51.668;6.874;2023-02-02T03:54:04;16.98;;;5.30;;
23678;SDS011;12016;51.668;6.874;2023-02-02T04:00:06;14.98;;;4.85;;
23678;SDS011;12016;51.668;6.874;2023-02-02T04:06:12;13.55;;;5.68;;
23678;SDS011;12016;51.668;6.874;2023-02-02T04:12:14;16.92;;;6.97;;
23678;SDS011;12016;51.668;6.874;2023-02-02T04:18:15;16.55;;;7.20;;
23678;SDS011;12016;51.668;6.874;2023-02-02T04:24:17;14.00;;;7.95;;
23678;SDS011;12016;51.668;6.874;2023-02-02T04:30:19;16.15;;;7.95;;
23678;SDS011;12016;51.668;6.874;2023-02-02T04:36:22;18.10;;;8.88;;
23678;SDS011;12016;51.668;6.874;2023-02-02T04:42:24;20.05;;;8.90;;
23678;SDS011;12016;51.668;6.874;2023-02-02T04:48:26;19.33;;;9.20;;
23678;SDS011;12016;51.668;6.874;2023-02-02T04:54:28;28.45;;;10.57;;
23678;SDS011;12016;51.668;6.874;2023-02-02T05:00:30;28.17;;;12.13;;
23678;SDS011;12016;51.668;6.874;2023-02-02T05:06:32;24.40;;;11.38;;
23678;SDS011;12016;51.668;6.874;2023-02-02T05:12:34;29.38;;;10.73;;
23678;SDS011;12016;51.668;6.874;2023-02-02T05:18:36;28.98;;;9.85;;
23678;SDS011;12016;51.668;6.874;2023-02-02T05:24:38;30.00;;;10.65;;
23678;SDS011;12016;51.668;6.874;2023-02-02T05:30:40;28.27;;;9.55;;
23678;SDS011;12016;51.668;6.874;2023-02-02T05:36:42;23.70;;;8.38;;
23678;SDS011;12016;51.668;6.874;2023-02-02T05:42:46;25.70;;;8.82;;
23678;SDS011;12016;51.668;6.874;2023-02-02T05:48:50;30.42;;;8.80;;
23678;SDS011;12016;51.668;6.874;2023-02-02T05:54:51;19.90;;;8.65;;
23678;SDS011;12016;51.668;6.874;2023-02-02T06:00:53;26.15;;;8.77;;
23678;SDS011;12016;51.668;6.874;2023-02-02T06:06:57;25.83;;;8.73;;
23678;SDS011;12016;51.668;6.874;2023-02-02T06:12:59;23.10;;;8.77;;
23678;SDS011;12016;51.668;6.874;2023-02-02T06:19:01;22.55;;;8.48;;
23678;SDS011;12016;51.668;6.874;2023-02-02T06:25:03;27.02;;;9.55;;
23678;SDS011;12016;51.668;6.874;2023-02-02T06:31:06;22.13;;;9.10;;
23678;SDS011;12016;51.668;6.874;2023-02-02T06:37:10;24.33;;;8.80;;
23678;SDS011;12016;51.668;6.874;2023-02-02T06:43:12;23.83;;;9.38;;
23678;SDS011;12016;51.668;6.874;2023-02-02T06:49:16;25.17;;;8.75;;
23678;SDS011;12016;51.668;6.874;2023-02-02T06:55:18;25.98;;;10.05;;
23678;SDS011;12016;51.668;6.874;2023-02-02T07:01:20;25.50;;;9.10;;
23678;SDS011;12016;51.668;6.874;2023-02-02T07:07:22;20.95;;;8.63;;
23678;SDS011;12016;51.668;6.874;2023-02-02T07:13:24;24.60;;;9.70;;
23678;SDS011;12016;51.668;6.874;2023-02-02T07:19:26;29.38;;;10.27;;
23678;SDS011;12016;51.668;6.874;2023-02-02T07:25:29;23.45;;;10.25;;
23678;SDS011;12016;51.668;6.874;2023-02-02T07:31:31;22.55;;;9.80;;
23678;SDS011;12016;51.668;6.874;2023-02-02T07:37:36;21.23;;;9.70;;
23678;SDS011;12016;51.668;6.874;2023-02-02T07:43:40;19.38;;;8.73;;
23678;SDS011;12016;51.668;6.874;2023-02-02T07:49:42;25.90;;;10.80;;
23678;SDS011;12016;51.668;6.874;2023-02-02T07:55:45;27.00;;;11.27;;
23678;SDS011;12016;51.668;6.874;2023-02-02T08:01:47;26.45;;;11.27;;
23678;SDS011;12016;51.668;6.874;2023-02-02T08:07:49;35.55;;;13.20;;
23678;SDS011;12016;51.668;6.874;2023-02-02T08:13:52;23.08;;;12.27;;
23678;SDS011;12016;51.668;6.874;2023-02-02T08:19:59;28.67;;;12.00;;
23678;SDS011;12016;51.668;6.874;2023-02-02T08:26:11;25.17;;;12.63;;
23678;SDS011;12016;51.668;6.874;2023-02-02T08:32:15;24.67;;;12.50;;
23678;SDS011;12016;51.668;6.874;2023-02-02T08:38:17;28.98;;;12.70;;
23678;SDS011;12016;51.668;6.874;2023-02-02T08:44:19;31.27;;;13.13;;
23678;SDS011;12016;51.668;6.874;2023-02-02T08:50:21;27.13;;;13.68;;
23678;SDS011;12016;51.668;6.874;2023-02-02T08:56:23;33.53;;;15.35;;
23678;SDS011;12016;51.668;6.874;2023-02-02T09:02:25;32.80;;;14.98;;
23678;SDS011;12016;51.668;6.874;2023-02-02T09:08:27;29.45;;;14.43;;
23678;SDS011;12016;51.668;6.874;2023-02-02T09:14:29;26.95;;;13.13;;
23678;SDS011;12016;51.668;6.874;2023-02-02T09:20:31;20.45;;;12.18;;
23678;SDS011;12016;51.668;6.874;2023-02-02T09:26:32;25.98;;;14.35;;
23678;SDS011;12016;51.668;6.874;2023-02-02T09:32:34;20.88;;;12.48;;
23678;SDS011;12016;51.668;6.874;2023-02-02T09:38:37;25.85;;;14.63;;
23678;SDS011;12016;51.668;6.874;2023-02-02T09:44:51;28.20;;;15.35;;
23678;SDS011;12016;51.668;6.874;2023-02-02T09:51:17;22.60;;;13.60;;
23678;SDS011;12016;51.668;6.874;2023-02-02T09:57:36;25.45;;;14.30;;
23678;SDS011;12016;51.668;6.874;2023-02-02T10:10:21;25.70;;;14.07;;
23678;SDS011;12016;51.668;6.874;2023-02-02T10:16:30;31.85;;;15.00;;
23678;SDS011;12016;51.668;6.874;2023-02-02T10:22:34;25.08;;;12.02;;
23678;SDS011;12016;51.668;6.874;2023-02-02T10:28:44;38.30;;;15.25;;
23678;SDS011;12016;51.668;6.874;2023-02-02T10:41:17;28.07;;;13.10;;
23678;SDS011;12016;51.668;6.874;2023-02-02T10:47:26;24.05;;;11.73;;
23678;SDS011;12016;51.668;6.874;2023-02-02T10:53:31;29.60;;;12.90;;
23678;SDS011;12016;51.668;6.874;2023-02-02T10:59:34;28.90;;;12.00;;
23678;SDS011;12016;51.668;6.874;2023-02-02T11:12:15;21.42;;;10.00;;
23678;SDS011;12016;51.668;6.874;2023-02-02T11:18:27;22.77;;;11.32;;
23678;SDS011;12016;51.668;6.874;2023-02-02T11:24:45;22.98;;;10.70;;
23678;SDS011;12016;51.668;6.874;2023-02-02T11:30:50;23.45;;;10.60;;
23678;SDS011;12016;51.668;6.874;2023-02-02T11:37:01;18.02;;;9.05;;
23678;SDS011;12016;51.668;6.874;2023-02-02T11:43:24;25.48;;;10.48;;
23678;SDS011;12016;51.668;6.874;2023-02-02T11:49:30;19.65;;;9.77;;
23678;SDS011;12016;51.668;6.874;2023-02-02T11:55:37;22.90;;;10.02;;
23678;SDS011;12016;51.668;6.874;2023-02-02T12:01:43;25.33;;;10.02;;
23678;SDS011;12016;51.668;6.874;2023-02-02T12:07:45;18.10;;;9.23;;
23678;SDS011;12016;51.668;6.874;2023-02-02T12:44:51;21.20;;;10.10;;
23678;SDS011;12016;51.668;6.874;2023-02-02T12:57:57;24.33;;;11.70;;
23678;SDS011;12016;51.668;6.874;2023-02-02T13:11:05;21.20;;;12.05;;
23678;SDS011;12016;51.668;6.874;2023-02-02T13:23:51;22.90;;;11.68;;
23678;SDS011;12016;51.668;6.874;2023-02-02T13:29:59;24.83;;;12.88;;
23678;SDS011;12016;51.668;6.874;2023-02-02T13:36:13;24.17;;;12.13;;
23678;SDS011;12016;51.668;6.874;2023-02-02T13:42:39;22.40;;;12.48;;
23678;SDS011;12016;51.668;6.874;2023-02-02T13:48:52;29.60;;;14.90;;
23678;SDS011;12016;51.668;6.874;2023-02-02T14:01:32;21.63;;;11.55;;
23678;SDS011;12016;51.668;6.874;2023-02-02T14:07:39;20.42;;;11.65;;
23678;SDS011;12016;51.668;6.874;2023-02-02T14:13:45;23.00;;;12.23;;
23678;SDS011;12016;51.668;6.874;2023-02-02T14:20:37;29.50;;;13.93;;
23678;SDS011;12016;51.668;6.874;2023-02-02T14:26:46;26.08;;;13.52;;
23678;SDS011;12016;51.668;6.874;2023-02-02T14:57:23;23.75;;;10.77;;
23678;SDS011;12016;51.668;6.874;2023-02-02T15:03:44;22.40;;;10.73;;
23678;SDS011;12016;51.668;6.874;2023-02-02T15:10:55;21.30;;;10.98;;
23678;SDS011;12016;51.668;6.874;2023-02-02T15:16:45;22.33;;;11.02;;
23678;SDS011;12016;51.668;6.874;2023-02-02T15:22:59;20.95;;;10.88;;
23678;SDS011;12016;51.668;6.874;2023-02-02T15:29:31;21.83;;;11.68;;
23678;SDS011;12016;51.668;6.874;2023-02-02T15:35:38;23.08;;;12.35;;
23678;SDS011;12016;51.668;6.874;2023-02-02T15:41:41;25.17;;;12.95;;
23678;SDS011;12016;51.668;6.874;2023-02-02T15:47:44;23.38;;;13.10;;
23678;SDS011;12016;51.668;6.874;2023-02-02T15:53:47;26.85;;;14.23;;
23678;SDS011;12016;51.668;6.874;2023-02-02T15:59:52;22.92;;;13.00;;
23678;SDS011;12016;51.668;6.874;2023-02-02T16:05:54;22.95;;;13.75;;
23678;SDS011;12016;51.668;6.874;2023-02-02T16:11:56;25.55;;;14.63;;
23678;SDS011;12016;51.668;6.874;2023-02-02T16:18:00;23.83;;;14.48;;
23678;SDS011;12016;51.668;6.874;2023-02-02T16:24:06;22.75;;;13.68;;
23678;SDS011;12016;51.668;6.874;2023-02-02T16:30:26;20.33;;;13.55;;
23678;SDS011;12016;51.668;6.874;2023-02-02T16:36:30;24.40;;;15.43;;
23678;SDS011;12016;51.668;6.874;2023-02-02T16:42:32;23.75;;;15.63;;
23678;SDS011;12016;51.668;6.874;2023-02-02T16:48:34;20.75;;;14.20;;
23678;SDS011;12016;51.668;6.874;2023-02-02T16:54:49;25.67;;;16.77;;
23678;SDS011;12016;51.668;6.874;2023-02-02T17:00:56;28.95;;;19.02;;
23678;SDS011;12016;51.668;6.874;2023-02-02T17:07:17;27.20;;;18.83;;
23678;SDS011;12016;51.668;6.874;2023-02-02T17:19:36;24.60;;;17.80;;
23678;SDS011;12016;51.668;6.874;2023-02-02T17:25:41;29.45;;;19.42;;
23678;SDS011;12016;51.668;6.874;2023-02-02T17:31:43;28.67;;;19.98;;
23678;SDS011;12016;51.668;6.874;2023-02-02T17:37:46;26.02;;;19.17;;
23678;SDS011;12016;51.668;6.874;2023-02-02T17:43:48;28.95;;;19.48;;
23678;SDS011;12016;51.668;6.874;2023-02-02T17:49:50;37.13;;;21.60;;
23678;SDS011;12016;51.668;6.874;2023-02-02T17:55:51;30.02;;;19.20;;
23678;SDS011;12016;51.668;6.874;2023-02-02T18:01:55;25.25;;;18.15;;
23678;SDS011;12016;51.668;6.874;2023-02-02T18:07:58;34.83;;;20.75;;
23678;SDS011;12016;51.668;6.874;2023-02-02T18:14:00;24.70;;;16.75;;
23678;SDS011;12016;51.668;6.874;2023-02-02T18:20:02;21.40;;;14.88;;
23678;SDS011;12016;51.668;6.874;2023-02-02T18:26:11;26.60;;;17.73;;
23678;SDS011;12016;51.668;6.874;2023-02-02T18:32:15;28.05;;;18.35;;
23678;SDS011;12016;51.668;6.874;2023-02-02T18:38:18;31.60;;;19.50;;
23678;SDS011;12016;51.668;6.874;2023-02-02T18:44:20;29.70;;;20.75;;
23678;SDS011;12016;51.668;6.874;2023-02-02T18:50:24;39.97;;;24.35;;
23678;SDS011;12016;51.668;6.874;2023-02-02T18:56:26;43.33;;;25.80;;
23678;SDS011;12016;51.668;6.874;2023-02-02T19:02:29;43.95;;;25.90;;
23678;SDS011;12016;51.668;6.874;2023-02-02T19:08:31;36.20;;;24.65;;
23678;SDS011;12016;51.668;6.874;2023-02-02T19:14:34;32.10;;;23.55;;
23678;SDS011;12016;51.668;6.874;2023-02-02T19:20:38;42.35;;;24.70;;
23678;SDS011;12016;51.668;6.874;2023-02-02T19:26:43;40.10;;;26.05;;
23678;SDS011;12016;51.668;6.874;2023-02-02T19:32:46;38.08;;;25.33;;
23678;SDS011;12016;51.668;6.874;2023-02-02T19:38:49;37.75;;;24.13;;
23678;SDS011;12016;51.668;6.874;2023-02-02T19:44:56;40.05;;;24.27;;
23678;SDS011;12016;51.668;6.874;2023-02-02T19:51:01;42.38;;;25.08;;
23678;SDS011;12016;51.668;6.874;2023-02-02T19:57:37;29.83;;;20.23;;
23678;SDS011;12016;51.668;6.874;2023-02-02T20:03:42;34.13;;;21.42;;
23678;SDS011;12016;51.668;6.874;2023-02-02T20:09:46;29.60;;;19.88;;
23678;SDS011;12016;51.668;6.874;2023-02-02T20:15:49;35.03;;;21.85;;
23678;SDS011;12016;51.668;6.874;2023-02-02T20:21:58;36.42;;;21.73;;
23678;SDS011;12016;51.668;6.874;2023-02-02T20:28:01;33.67;;;20.85;;
23678;SDS011;12016;51.668;6.874;2023-02-02T20:34:16;34.70;;;22.80;;
23678;SDS011;12016;51.668;6.874;2023-02-02T20:40:24;31.48;;;20.58;;
23678;SDS011;12016;51.668;6.874;2023-02-02T20:46:28;40.50;;;24.33;;
23678;SDS011;12016;51.668;6.874;2023-02-02T20:52:30;35.17;;;23.38;;
23678;SDS011;12016;51.668;6.874;2023-02-02T20:58:32;39.13;;;26.00;;
23678;SDS011;12016;51.668;6.874;2023-02-02T21:04:34;41.40;;;27.38;;
23678;SDS011;12016;51.668;6.874;2023-02-02T21:10:35;47.80;;;29.40;;
23678;SDS011;12016;51.668;6.874;2023-02-02T21:16:37;35.97;;;26.85;;
23678;SDS011;12016;51.668;6.874;2023-02-02T21:22:39;51.13;;;30.63;;
23678;SDS011;12016;51.668;6.874;2023-02-02T21:28:41;43.22;;;28.85;;
23678;SDS011;12016;51.668;6.874;2023-02-02T21:34:44;39.55;;;26.23;;
23678;SDS011;12016;51.668;6.874;2023-02-02T21:40:45;36.72;;;26.30;;
23678;SDS011;12016;51.668;6.874;2023-02-02T21:46:49;32.28;;;25.40;;
23678;SDS011;12016;51.668;6.874;2023-02-02T21:53:26;36.15;;;26.25;;
23678;SDS011;12016;51.668;6.874;2023-02-02T21:59:22;32.10;;;24.52;;
23678;SDS011;12016;51.668;6.874;2023-02-02T22:05:33;29.50;;;23.30;;
23678;SDS011;12016;51.668;6.874;2023-02-02T22:17:49;32.85;;;24.85;;
23678;SDS011;12016;51.668;6.874;2023-02-02T22:23:51;32.97;;;25.45;;
23678;SDS011;12016;51.668;6.874;2023-02-02T22:29:57;36.22;;;27.02;;
23678;SDS011;12016;51.668;6.874;2023-02-02T22:36:08;37.55;;;27.15;;
23678;SDS011;12016;51.668;6.874;2023-02-02T22:42:10;36.83;;;27.02;;
23678;SDS011;12016;51.668;6.874;2023-02-02T22:48:13;36.50;;;25.42;;
23678;SDS011;12016;51.668;6.874;2023-02-02T22:54:16;37.67;;;27.98;;
23678;SDS011;12016;51.668;6.874;2023-02-02T23:00:19;37.17;;;28.83;;
23678;SDS011;12016;51.668;6.874;2023-02-02T23:06:22;37.33;;;27.40;;
23678;SDS011;12016;51.668;6.874;2023-02-02T23:12:24;35.15;;;27.17;;
23678;SDS011;12016;51.668;6.874;2023-02-02T23:18:26;35.03;;;27.48;;
23678;SDS011;12016;51.668;6.874;2023-02-02T23:24:28;34.22;;;25.92;;
23678;SDS011;12016;51.668;6.874;2023-02-02T23:30:29;34.88;;;26.27;;
23678;SDS011;12016;51.668;6.874;2023-02-02T23:36:31;34.33;;;25.90;;
23678;SDS011;12016;51.668;6.874;2023-02-02T23:42:34;33.88;;;25.25;;
23678;SDS011;12016;51.668;6.874;2023-02-02T23:48:35;31.60;;;24.42;;
23678;SDS011;12016;51.668;6.874;2023-02-02T23:54:37;29.23;;;22.83;;
